createdAt,value
2019-01-05T00:01:29.628Z,4.13
2019-01-05T00:07:23.235Z,4.37
2019-01-05T00:10:05.451Z,5.10
2019-01-05T00:12:48.211Z,4.43
2019-01-05T00:15:48.566Z,4.37
2019-01-05T00:18:48.686Z,4.30
2019-01-05T00:21:31.410Z,4.40
2019-01-05T00:27:39.024Z,4.77
2019-01-05T00:30:21.042Z,4.90
2019-01-05T00:33:20.888Z,5.20
2019-01-05T00:36:05.560Z,5.47
2019-01-05T00:39:05.472Z,4.77
2019-01-05T00:44:59.776Z,5.57
2019-01-05T00:50:53.734Z,5.63
2019-01-05T00:53:53.656Z,6.63
2019-01-05T00:56:35.976Z,6.13
2019-01-05T01:02:43.426Z,5.23
2019-01-05T01:05:43.511Z,5.33
2019-01-05T01:08:29.046Z,5.67
2019-01-05T01:11:11.421Z,5.57
2019-01-05T01:13:56.496Z,5.17
2019-01-05T01:16:56.765Z,5.50
2019-01-05T01:19:56.407Z,5.20
2019-01-05T01:28:43.245Z,5.13
2019-01-05T01:31:42.777Z,5.40
2019-01-05T01:34:27.663Z,5.33
2019-01-05T01:40:22.241Z,4.93
2019-01-05T01:43:04.927Z,6.13
2019-01-05T01:45:50.394Z,5.30
2019-01-05T01:48:50.269Z,5.50
2019-01-05T01:51:50.249Z,5.80
2019-01-05T01:54:35.489Z,6.53
2019-01-05T01:57:18.186Z,4.97
2019-01-05T02:00:00.258Z,4.80
2019-01-05T02:08:34.576Z,5.03
2019-01-05T02:11:34.230Z,4.37
2019-01-05T02:14:16.766Z,3.83
2019-01-05T02:17:16.863Z,4.13
2019-01-05T02:20:17.229Z,5.60
2019-01-05T02:23:17.699Z,5.07
2019-01-05T02:26:00.071Z,4.77
2019-01-05T02:28:59.927Z,4.47
2019-01-05T02:31:42.578Z,4.63
2019-01-05T02:34:28.194Z,4.63
2019-01-05T02:37:28.419Z,4.00
2019-01-05T02:43:18.163Z,4.37
2019-01-05T02:46:03.359Z,4.20
2019-01-05T02:49:02.988Z,5.27
2019-01-05T02:52:03.225Z,5.07
2019-01-05T02:58:23.517Z,5.07
2019-01-05T03:01:49.879Z,5.20
2019-01-05T03:05:16.305Z,4.80
2019-01-05T03:08:24.911Z,5.43
2019-01-05T03:11:33.685Z,5.27
2019-01-05T03:15:00.032Z,4.97
2019-01-05T03:18:26.427Z,4.50
2019-01-05T03:21:52.768Z,4.37
2019-01-05T03:25:01.891Z,4.40
2019-01-05T03:28:10.512Z,3.23
2019-01-05T03:31:36.932Z,3.83
2019-01-05T03:35:03.339Z,3.57
2019-01-05T03:38:29.761Z,4.00
2019-01-05T03:41:56.099Z,3.67
2019-01-05T03:45:04.720Z,2.47
2019-01-05T03:48:05.049Z,2.50
2019-01-05T03:53:44.051Z,2.43
2019-01-05T03:59:37.420Z,2.57
2019-01-05T04:02:22.651Z,2.73
2019-01-05T04:08:14.608Z,2.53
2019-01-05T04:10:59.633Z,1.70
2019-01-05T04:19:30.225Z,2.70
2019-01-05T04:25:20.256Z,2.40
2019-01-05T04:28:20.583Z,2.60
2019-01-05T04:31:20.882Z,2.57
2019-01-05T04:34:03.392Z,2.83
2019-01-05T04:37:03.155Z,2.33
2019-01-05T04:40:02.722Z,3.13
2019-01-05T04:42:48.071Z,2.77
2019-01-05T04:45:33.358Z,2.17
2019-01-05T04:48:15.993Z,2.20
2019-01-05T04:50:58.134Z,2.60
2019-01-05T04:57:06.721Z,2.60
2019-01-05T05:00:33.203Z,2.20
2019-01-05T05:03:59.603Z,2.77
2019-01-05T05:07:26.015Z,2.80
2019-01-05T05:10:34.637Z,2.60
2019-01-05T05:14:01.076Z,3.23
2019-01-05T05:17:27.491Z,2.40
2019-01-05T05:20:53.802Z,2.60
2019-01-05T05:24:20.151Z,2.13
2019-01-05T05:27:46.477Z,2.77
2019-01-05T05:31:12.849Z,1.97
2019-01-05T05:34:39.239Z,2.47
2019-01-05T05:41:20.306Z,2.67
2019-01-05T05:44:46.716Z,2.73
2019-01-05T05:47:46.445Z,2.60
2019-01-05T05:50:31.408Z,2.60
2019-01-05T05:53:39.951Z,2.80
2019-01-05T05:57:06.380Z,2.77
2019-01-05T06:00:15.018Z,2.70
2019-01-05T06:03:41.423Z,2.60
2019-01-05T06:06:49.978Z,2.83
2019-01-05T06:13:31.312Z,2.63
2019-01-05T06:16:39.847Z,2.40
2019-01-05T06:19:48.659Z,2.67
2019-01-05T06:26:42.935Z,2.53
2019-01-05T06:30:09.359Z,3.03
2019-01-05T06:33:35.744Z,3.03
2019-01-05T06:37:02.083Z,2.63
2019-01-05T06:40:28.524Z,3.33
2019-01-05T06:43:54.948Z,2.83
2019-01-05T06:46:54.495Z,3.17
2019-01-05T06:49:54.380Z,3.40
2019-01-05T06:52:54.023Z,3.17
2019-01-05T06:55:36.403Z,3.53
2019-01-05T06:58:19.028Z,3.87
2019-01-05T07:01:04.294Z,3.50
2019-01-05T07:03:49.347Z,3.53
2019-01-05T07:06:48.906Z,3.50
2019-01-05T07:09:49.105Z,3.97
2019-01-05T07:15:43.687Z,3.00
2019-01-05T07:18:28.840Z,3.77
2019-01-05T07:21:14.126Z,2.90
2019-01-05T07:24:14.186Z,3.23
2019-01-05T07:27:14.392Z,4.00
2019-01-05T07:33:03.681Z,4.33
2019-01-05T07:36:03.862Z,4.63
2019-01-05T07:39:04.057Z,4.10
2019-01-05T07:41:47.274Z,3.73
2019-01-05T07:44:47.651Z,3.30
2019-01-05T07:47:47.778Z,3.77
2019-01-05T07:53:41.970Z,5.90
2019-01-05T07:56:27.361Z,4.70
2019-01-05T07:59:27.265Z,4.07
2019-01-05T08:02:10.074Z,4.53
2019-01-05T08:04:52.236Z,3.97
2019-01-05T08:10:46.768Z,3.90
2019-01-05T08:13:28.698Z,3.90
2019-01-05T08:16:28.310Z,4.13
2019-01-05T08:19:10.718Z,4.90
2019-01-05T08:21:53.394Z,4.13
2019-01-05T08:24:53.508Z,5.13
2019-01-05T08:27:53.877Z,4.77
2019-01-05T08:30:53.334Z,4.80
2019-01-05T08:33:47.026Z,5.27
2019-01-05T08:36:47.086Z,4.80
2019-01-05T08:39:32.356Z,4.77
2019-01-05T08:42:32.192Z,4.80
2019-01-05T08:45:31.882Z,5.13
2019-01-05T08:48:31.670Z,4.93
2019-01-05T08:51:14.466Z,5.10
2019-01-05T08:53:56.941Z,4.57
2019-01-05T08:56:57.390Z,5.13
2019-01-05T08:59:40.206Z,4.97
2019-01-05T09:05:17.580Z,4.77
2019-01-05T09:12:01.212Z,5.37
2019-01-05T09:15:27.632Z,5.20
2019-01-05T09:22:08.813Z,5.30
2019-01-05T09:25:35.208Z,4.93
2019-01-05T09:29:01.546Z,4.97
2019-01-05T09:32:27.880Z,5.37
2019-01-05T09:35:54.330Z,6.40
2019-01-05T09:39:02.939Z,5.10
2019-01-05T09:42:29.360Z,4.50
2019-01-05T09:45:55.770Z,5.40
2019-01-05T09:49:04.404Z,5.60
2019-01-05T09:52:30.847Z,6.07
2019-01-05T09:55:39.468Z,6.03
2019-01-05T09:59:05.922Z,5.40
2019-01-05T10:02:14.537Z,5.13
2019-01-05T10:08:56.294Z,5.27
2019-01-05T10:12:24.437Z,5.37
2019-01-05T10:15:33.023Z,5.50
2019-01-05T10:18:41.640Z,5.43
2019-01-05T10:22:08.782Z,5.17
2019-01-05T10:25:35.202Z,6.00
2019-01-05T10:29:01.615Z,5.47
2019-01-05T10:32:10.138Z,6.07
2019-01-05T10:35:36.552Z,6.60
2019-01-05T10:39:02.978Z,5.97
2019-01-05T10:42:11.747Z,6.83
2019-01-05T10:45:38.183Z,7.17
2019-01-05T10:48:20.704Z,7.00
2019-01-05T10:51:05.953Z,6.97
2019-01-05T10:54:05.878Z,6.83
2019-01-05T10:56:50.847Z,7.03
2019-01-05T10:59:50.418Z,6.77
2019-01-05T11:02:35.422Z,7.73
2019-01-05T11:05:35.015Z,6.87
2019-01-05T11:08:35.678Z,7.60
2019-01-05T11:12:02.091Z,7.00
2019-01-05T11:15:28.540Z,7.20
2019-01-05T11:18:55.000Z,7.47
2019-01-05T11:22:21.429Z,6.97
2019-01-05T11:25:47.839Z,6.70
2019-01-05T11:29:14.168Z,8.33
2019-01-05T11:32:40.547Z,6.43
2019-01-05T11:36:06.973Z,7.43
2019-01-05T11:39:33.384Z,6.77
2019-01-05T11:43:00.140Z,6.50
2019-01-05T11:45:45.120Z,6.67
2019-01-05T11:48:45.140Z,7.60
2019-01-05T11:51:45.143Z,9.07
2019-01-05T11:57:21.289Z,7.60
2019-01-05T12:00:21.709Z,7.57
2019-01-05T12:03:21.516Z,7.30
2019-01-05T12:06:21.559Z,7.50
2019-01-05T12:09:21.720Z,7.87
2019-01-05T12:15:00.943Z,7.10
2019-01-05T12:17:43.002Z,8.10
2019-01-05T12:20:28.204Z,7.00
2019-01-05T12:23:27.838Z,7.93
2019-01-05T12:26:27.572Z,8.38
2019-01-05T12:29:27.789Z,7.00
2019-01-05T12:32:13.443Z,7.40
2019-01-05T12:35:13.715Z,8.43
2019-01-05T12:41:02.537Z,6.95
2019-01-05T12:44:02.608Z,6.63
2019-01-05T12:49:39.899Z,6.80
2019-01-05T12:52:39.624Z,6.73
2019-01-05T12:55:21.959Z,6.80
2019-01-05T12:58:22.236Z,7.13
2019-01-05T13:01:22.335Z,7.50
2019-01-05T13:04:07.210Z,10.27
2019-01-05T13:10:13.992Z,7.00
2019-01-05T13:16:05.869Z,8.50
2019-01-05T13:19:05.858Z,7.83
2019-01-05T13:22:05.923Z,8.30
2019-01-05T13:25:06.245Z,7.10
2019-01-05T13:27:49.086Z,8.63
2019-01-05T13:34:15.218Z,8.40
2019-01-05T13:37:23.772Z,7.90
2019-01-05T13:40:50.202Z,8.50
2019-01-05T13:43:58.810Z,7.80
2019-01-05T13:47:25.256Z,6.67
2019-01-05T13:50:33.883Z,8.03
2019-01-05T13:53:42.501Z,9.63
2019-01-05T13:56:49.700Z,8.37
2019-01-05T13:59:56.807Z,8.97
2019-01-05T14:03:04.009Z,9.07
2019-01-05T14:06:11.112Z,9.30
2019-01-05T14:09:18.133Z,9.20
2019-01-05T14:12:00.104Z,8.57
2019-01-05T14:14:45.173Z,8.37
2019-01-05T14:20:38.875Z,7.40
2019-01-05T14:23:38.957Z,7.67
2019-01-05T14:26:39.026Z,7.20
2019-01-05T14:29:39.034Z,8.37
2019-01-05T14:32:21.729Z,6.90
2019-01-05T14:35:04.072Z,7.80
2019-01-05T14:37:50.091Z,8.10
2019-01-05T14:44:05.690Z,8.17
2019-01-05T14:47:12.777Z,9.03
2019-01-05T14:50:19.903Z,7.47
2019-01-05T14:53:27.011Z,8.93
2019-01-05T14:56:34.079Z,8.27
2019-01-05T14:59:41.114Z,9.13
2019-01-05T15:02:28.865Z,8.13
2019-01-05T15:08:35.103Z,11.17
2019-01-05T15:11:20.003Z,9.33
2019-01-05T15:17:09.503Z,12.90
2019-01-05T15:23:01.561Z,9.13
2019-01-05T15:26:01.720Z,9.13
2019-01-05T15:29:01.660Z,9.50
2019-01-05T15:31:44.113Z,7.87
2019-01-05T15:34:43.745Z,8.47
2019-01-05T15:37:26.342Z,9.17
2019-01-05T15:40:26.028Z,9.03
2019-01-05T15:43:26.422Z,8.93
2019-01-05T15:46:33.819Z,9.07
2019-01-05T15:49:40.907Z,8.30
2019-01-05T15:52:47.948Z,8.73
2019-01-05T15:55:54.959Z,8.90
2019-01-05T15:59:02.068Z,8.60
2019-01-05T16:02:09.143Z,8.00
2019-01-05T16:08:11.021Z,9.03
2019-01-05T16:11:18.103Z,8.27
2019-01-05T16:14:25.231Z,8.93
2019-01-05T16:17:32.572Z,9.17
2019-01-05T16:20:40.021Z,9.57
2019-01-05T16:23:47.188Z,8.20
2019-01-05T16:26:59.084Z,10.30
2019-01-05T16:30:03.020Z,9.20
2019-01-05T16:33:10.150Z,10.53
2019-01-05T16:36:17.242Z,9.00
2019-01-05T16:39:24.964Z,15.10
2019-01-05T16:42:32.089Z,11.07
2019-01-05T16:45:31.977Z,10.80
2019-01-05T16:48:32.378Z,9.47
2019-01-05T16:57:32.058Z,10.20
2019-01-05T17:00:31.682Z,11.37
2019-01-05T17:03:13.706Z,10.83
2019-01-05T17:06:13.504Z,9.73
2019-01-05T17:09:13.800Z,11.23
2019-01-05T17:12:13.819Z,14.13
2019-01-05T17:15:13.611Z,12.83
2019-01-05T17:17:58.283Z,14.07
2019-01-05T17:20:41.207Z,12.33
2019-01-05T17:23:40.127Z,10.10
2019-01-05T17:26:47.192Z,12.07
2019-01-05T17:29:54.307Z,11.67
2019-01-05T17:33:01.418Z,11.37
2019-01-05T17:36:09.177Z,10.83
2019-01-05T17:39:16.295Z,12.57
2019-01-05T17:42:23.386Z,11.83
2019-01-05T17:48:29.011Z,10.80
2019-01-05T17:51:36.080Z,10.50
2019-01-05T17:54:43.198Z,9.37
2019-01-05T17:57:50.327Z,9.80
2019-01-05T18:00:57.423Z,9.00
2019-01-05T18:04:04.517Z,11.37
2019-01-05T18:07:11.725Z,10.73
2019-01-05T18:10:18.784Z,9.30
2019-01-05T18:13:01.962Z,9.63
2019-01-05T18:15:45.442Z,10.13
2019-01-05T18:18:52.551Z,12.00
2019-01-05T18:21:59.684Z,10.70
2019-01-05T18:25:06.823Z,10.77
2019-01-05T18:31:22.455Z,11.60
2019-01-05T18:37:27.876Z,12.27
2019-01-05T18:40:35.251Z,14.03
2019-01-05T18:44:01.654Z,13.53
2019-01-05T18:47:08.749Z,13.17
2019-01-05T18:53:24.406Z,11.90
2019-01-05T18:56:31.514Z,12.37
2019-01-05T18:59:38.626Z,12.97
2019-01-05T19:02:46.016Z,12.83
2019-01-05T19:05:55.250Z,14.67
2019-01-05T19:09:04.203Z,14.00
2019-01-05T19:12:11.769Z,14.77
2019-01-05T19:15:18.942Z,14.37
2019-01-05T19:18:01.717Z,14.97
2019-01-05T19:21:01.847Z,15.70
2019-01-05T19:23:44.547Z,16.17
2019-01-05T19:26:30.097Z,16.80
2019-01-05T19:29:29.719Z,25.30
2019-01-05T19:35:21.118Z,25.23
2019-01-05T19:38:28.225Z,19.73
2019-01-05T19:41:35.304Z,22.90
2019-01-05T19:44:42.409Z,36.27
2019-01-05T19:47:49.598Z,25.90
2019-01-05T19:50:56.714Z,20.97
2019-01-05T19:54:03.813Z,17.93
2019-01-05T19:57:13.051Z,19.47
2019-01-05T20:03:28.743Z,16.43
2019-01-05T20:12:42.590Z,14.30
2019-01-05T20:15:50.252Z,14.87
2019-01-05T20:18:57.376Z,15.60
2019-01-05T20:22:04.467Z,19.87
2019-01-05T20:25:11.585Z,18.20
2019-01-05T20:28:31.187Z,19.53
2019-01-05T20:34:26.542Z,24.50
2019-01-05T20:37:09.027Z,28.70
2019-01-05T20:39:55.483Z,25.63
2019-01-05T20:42:55.486Z,25.20
2019-01-05T20:45:40.526Z,23.17
2019-01-05T20:48:40.733Z,28.17
2019-01-05T20:54:34.924Z,24.97
2019-01-05T20:57:35.306Z,25.17
2019-01-05T21:00:35.353Z,30.00
2019-01-05T21:03:20.451Z,28.23
2019-01-05T21:12:22.470Z,23.90
2019-01-05T21:17:58.287Z,24.67
2019-01-05T21:20:41.226Z,22.80
2019-01-05T21:23:48.336Z,26.20
2019-01-05T21:26:57.210Z,21.27
2019-01-05T21:33:12.833Z,22.80
2019-01-05T21:36:19.968Z,24.43
2019-01-05T21:39:27.063Z,23.33
2019-01-05T21:42:34.172Z,24.40
2019-01-05T21:45:41.280Z,22.10
2019-01-05T21:48:48.432Z,24.90
2019-01-05T21:51:55.514Z,21.57
2019-01-05T21:55:02.660Z,23.30
2019-01-05T22:01:18.850Z,25.00
2019-01-05T22:04:25.977Z,24.37
2019-01-05T22:07:33.064Z,23.90
2019-01-05T22:10:40.190Z,21.73
2019-01-05T22:13:47.303Z,25.07
2019-01-05T22:19:52.839Z,23.53
2019-01-05T22:23:02.205Z,22.87
2019-01-05T22:26:09.312Z,20.93
2019-01-05T22:29:18.988Z,24.33
2019-01-05T22:32:26.100Z,24.00
2019-01-05T22:35:33.211Z,22.87
2019-01-05T22:38:40.315Z,22.33
2019-01-05T22:44:55.938Z,22.20
2019-01-05T22:48:03.043Z,22.17
2019-01-05T22:51:10.152Z,23.30
2019-01-05T22:54:17.264Z,23.63
2019-01-05T22:57:24.356Z,21.53
2019-01-05T23:00:31.743Z,23.90
2019-01-05T23:06:47.350Z,20.67
2019-01-05T23:09:54.480Z,22.23
2019-01-05T23:13:01.562Z,20.20
2019-01-05T23:16:08.671Z,19.13
2019-01-05T23:19:15.759Z,19.57
2019-01-05T23:22:22.893Z,20.17
2019-01-05T23:25:22.821Z,19.03
2019-01-05T23:31:17.161Z,20.63
2019-01-05T23:34:17.479Z,18.17
2019-01-05T23:37:17.042Z,19.37
2019-01-05T23:43:11.533Z,18.53
2019-01-05T23:45:57.750Z,18.10
2019-01-05T23:49:04.852Z,19.93
2019-01-05T23:52:26.099Z,18.03
2019-01-05T23:55:20.693Z,18.70
2019-01-05T23:58:29.559Z,19.90
